Airfield :
LOGIN :

Register | Disclaimer

   EN    FR    IT 

 










Legend :    VFR   Marginal VFR   IFR   Intensive IFR   Very Intensive IFR
Visi :
Ceiling :
>= 8 km
>= 3000ft
5 to 8 km
1000 to 3000 ft
1500m to 5 km
500 to 1000 ft
800 to 1500m
200 to 500 ft
< 800m
< 200 ft
Symbols :   Thunderstorms  Fog  Heavy snow  Heavy precipitations  Wind > 20 kt
SIGMETs :     Misc.  Thunderstorms  Icing  Turbulence  Mountain Waves  Volcanic Ashes







- Airport Elevation : 46 ft
- IATA code : SNN


EINN - Shannon

CURRENT METAR :
  • 270230Z 03007KT CAVOK 14/10 Q1016 NOSIG

EXPIRED METARs :
  • 270200Z 03012KT CAVOK 15/10 Q1016 NOSIG
  • 270130Z 02010KT CAVOK 15/10 Q1017 NOSIG
  • 270100Z 01009KT CAVOK 15/10 Q1017 NOSIG
  • 270030Z 02007KT CAVOK 15/10 Q1017 NOSIG
  • 270000Z 04009KT CAVOK 16/09 Q1018 NOSIG

TAF TAF EINN
Valid from the 27 at 00:00 until the 28 at 00:00 UTC


262300Z 2700/2724 05010KT 9999 FEW020 BKN040
TEMPO 2703/2709 5000 SHRA BKN013 BKN030CB
PROB30
TEMPO 2704/2709 3000 TSRA
BECMG 2706/2709 08010KT
BECMG 2714/2717 12010KT
PROB30
TEMPO 2713/2718 -SHRA SCT018CB
BECMG 2721/2724 VRB03KT
TEMPO 2721/2724 3000 BR BKN007
No reported NOTAMs for that airfield.
3 SIGMETs reported for the Shannon FIR (EISN) :
 
SIGMET 02 cancelation
EISN SIGMET 03 262325/270230 EINN
EISN SHANNON FIR/UIR CNL SIGMET 02 262330/270230=
SIGMET 02  CANCELED :
Embedded thunderstorms
EISN SIGMET 02 VALID 270230/270430 EINN
EISN SHANNON FIR/UIR EMBD TS OBS WI N5314 W00530 - N5220 W00530 - N5100 W00800 - N5100 W00950 - N5212 W00950 - N5314 W00530 TOP FL370 MOV WNW 10KT NC=
Embedded thunderstorms
EISN SIGMET 01 VALID 270100/270230 EINN
EISN SHANNON FIR/UIR EMBD TS OBS WI N5156 W00620 - N5221 W00620 - N5221 W00650 - N5254 W00650 - N5254 W00530 - N5220 W00530 - N5156 W00620 TOP FL370 MOV WNW 15KT NC=



MET'MAP, your aeronautical weather chart ! - Copyright ORBIFLY December 2007 - Disclaimer

ORBIFLY MET'MAP TEAM :

Programming & Development : Alexandra Zaïnal
Concept & Development : Baudouin d'Aumeries
Co-Development & Prog : Marc-Olivier Méhu
Technical & hardware support : Manuel Goepfert

Contact : metmap@orbifly.com




SOURCES & CREDITS :

   NOAA